createdAt,value
2019-02-19T00:01:10.215Z,9.20
2019-02-19T00:06:16.200Z,9.30
2019-02-19T00:11:22.133Z,9.30
2019-02-19T00:16:28.000Z,9.30
2019-02-19T00:21:34.019Z,9.30
2019-02-19T00:26:40.880Z,9.30
2019-02-19T00:31:46.939Z,9.20
2019-02-19T00:36:52.893Z,9.30
2019-02-19T00:41:58.920Z,9.20
2019-02-19T00:47:04.943Z,9.10
2019-02-19T00:52:11.831Z,9.10
2019-02-19T00:57:17.761Z,9.00
2019-02-19T01:02:25.401Z,8.90
2019-02-19T01:07:31.841Z,8.90
2019-02-19T01:12:37.854Z,8.90
2019-02-19T01:17:47.104Z,8.90
2019-02-19T01:22:53.328Z,8.90
2019-02-19T01:27:59.424Z,8.80
2019-02-19T01:33:05.726Z,8.80
2019-02-19T01:38:11.775Z,8.80
2019-02-19T01:43:17.758Z,8.80
2019-02-19T01:48:23.997Z,8.80
2019-02-19T01:53:30.321Z,8.60
2019-02-19T01:58:36.276Z,8.70
2019-02-19T02:03:42.209Z,8.60
2019-02-19T02:08:48.220Z,8.50
2019-02-19T02:13:54.239Z,8.60
2019-02-19T02:19:00.180Z,8.60
2019-02-19T02:24:06.810Z,8.60
2019-02-19T02:29:12.770Z,8.60
2019-02-19T02:34:18.637Z,8.50
2019-02-19T02:39:24.838Z,8.50
2019-02-19T02:44:30.982Z,8.50
2019-02-19T02:49:37.257Z,8.40
2019-02-19T02:54:43.305Z,8.40
2019-02-19T02:59:49.214Z,8.40
2019-02-19T03:04:56.316Z,8.40
2019-02-19T03:10:02.298Z,8.40
2019-02-19T03:15:09.845Z,8.30
2019-02-19T03:20:15.881Z,8.30
2019-02-19T03:25:21.857Z,8.20
2019-02-19T03:30:28.000Z,8.20
2019-02-19T03:35:35.163Z,8.20
2019-02-19T03:40:41.383Z,8.10
2019-02-19T03:45:47.335Z,8.10
2019-02-19T03:50:53.324Z,8.20
2019-02-19T03:55:59.272Z,8.10
2019-02-19T04:01:05.333Z,8.00
2019-02-19T04:06:11.370Z,8.00
2019-02-19T04:11:19.172Z,8.00
2019-02-19T04:16:25.130Z,7.90
2019-02-19T04:21:31.053Z,7.90
2019-02-19T04:26:36.923Z,7.80
2019-02-19T04:31:42.920Z,7.90
2019-02-19T04:36:48.849Z,7.80
2019-02-19T04:41:54.860Z,7.60
2019-02-19T04:47:00.829Z,7.60
2019-02-19T04:52:06.829Z,7.70
2019-02-19T04:57:13.577Z,7.60
2019-02-19T05:02:19.595Z,7.60
2019-02-19T05:07:25.620Z,7.60
2019-02-19T05:12:31.622Z,7.60
2019-02-19T05:17:37.567Z,7.60
2019-02-19T05:22:43.513Z,7.60
2019-02-19T05:27:49.440Z,7.50
2019-02-19T05:32:57.018Z,7.50
2019-02-19T05:38:02.984Z,7.50
2019-02-19T05:43:08.879Z,7.50
2019-02-19T05:48:15.562Z,7.50
2019-02-19T05:53:21.481Z,7.40
2019-02-19T05:58:27.634Z,7.40
2019-02-19T06:03:33.520Z,7.30
2019-02-19T06:08:39.405Z,7.40
2019-02-19T06:13:46.242Z,7.30
2019-02-19T06:18:52.305Z,7.30
2019-02-19T06:23:58.177Z,7.30
2019-02-19T06:29:04.207Z,7.20
2019-02-19T06:34:10.561Z,7.20
2019-02-19T06:39:17.020Z,7.20
2019-02-19T06:44:23.021Z,7.20
2019-02-19T06:49:29.341Z,7.20
2019-02-19T06:54:35.334Z,7.20
2019-02-19T06:59:41.289Z,7.20
2019-02-19T07:04:51.190Z,7.20
2019-02-19T07:09:57.111Z,7.20
2019-02-19T07:15:03.090Z,7.20
2019-02-19T07:20:09.144Z,7.20
2019-02-19T07:25:15.280Z,7.20
2019-02-19T07:30:21.396Z,7.20
2019-02-19T07:35:27.326Z,7.40
2019-02-19T07:40:33.203Z,7.30
2019-02-19T07:45:39.230Z,7.30
2019-02-19T07:50:45.189Z,7.40
2019-02-19T07:55:51.064Z,7.40
2019-02-19T08:00:57.209Z,7.50
2019-02-19T08:06:03.787Z,7.60
2019-02-19T08:11:09.869Z,7.80
2019-02-19T08:16:18.999Z,7.90
2019-02-19T08:21:25.201Z,8.20
2019-02-19T08:26:31.140Z,8.70
2019-02-19T08:31:37.116Z,9.00
2019-02-19T08:36:43.166Z,9.30
2019-02-19T08:41:49.108Z,9.50
2019-02-19T08:46:55.384Z,9.90
2019-02-19T08:52:01.329Z,10.10
2019-02-19T08:57:08.296Z,10.30
2019-02-19T09:02:14.358Z,10.80
2019-02-19T09:07:20.714Z,11.10
2019-02-19T09:12:26.781Z,11.20
2019-02-19T09:17:32.861Z,10.90
2019-02-19T09:22:38.852Z,10.20
2019-02-19T09:27:44.908Z,10.30
2019-02-19T09:32:50.889Z,10.30
2019-02-19T09:37:57.172Z,9.90
2019-02-19T09:43:03.084Z,9.90
2019-02-19T09:48:09.157Z,10.10
2019-02-19T09:53:15.109Z,9.90
2019-02-19T09:58:21.927Z,9.80
2019-02-19T10:03:27.994Z,10.30
2019-02-19T10:08:33.950Z,11.00
2019-02-19T10:13:39.906Z,10.90
2019-02-19T10:18:45.866Z,10.70
2019-02-19T10:23:52.170Z,11.40
2019-02-19T10:28:58.905Z,11.50
2019-02-19T10:34:05.007Z,12.70
2019-02-19T10:39:12.555Z,12.20
2019-02-19T10:44:18.883Z,12.40
2019-02-19T10:49:24.945Z,12.20
2019-02-19T10:54:31.097Z,11.40
2019-02-19T10:59:37.044Z,11.20
2019-02-19T11:04:45.758Z,11.10
2019-02-19T11:09:52.177Z,11.10
2019-02-19T11:14:58.221Z,11.30
2019-02-19T11:20:04.384Z,11.30
2019-02-19T11:25:12.576Z,11.30
2019-02-19T11:30:20.194Z,11.40
2019-02-19T11:35:26.271Z,11.30
2019-02-19T11:40:32.228Z,11.40
2019-02-19T11:45:38.622Z,11.20
2019-02-19T11:50:44.653Z,11.10
2019-02-19T11:55:50.614Z,11.20
2019-02-19T12:00:56.646Z,11.10
2019-02-19T12:06:03.005Z,11.10
2019-02-19T12:11:09.330Z,11.10
2019-02-19T12:16:15.849Z,11.20
2019-02-19T12:21:21.948Z,11.00
2019-02-19T12:26:28.011Z,11.10
2019-02-19T12:31:34.368Z,11.10
2019-02-19T12:36:41.321Z,11.00
2019-02-19T12:41:47.540Z,11.10
2019-02-19T12:46:53.466Z,11.20
2019-02-19T12:51:59.408Z,11.10
2019-02-19T12:57:05.570Z,11.20
2019-02-19T13:02:11.627Z,11.30
2019-02-19T13:07:18.257Z,11.30
2019-02-19T13:12:24.207Z,11.20
2019-02-19T13:17:30.088Z,11.00
2019-02-19T13:22:36.117Z,11.00
2019-02-19T13:27:42.067Z,11.00
2019-02-19T13:32:48.936Z,10.90
2019-02-19T13:37:54.965Z,10.90
2019-02-19T13:43:01.208Z,11.00
2019-02-19T13:48:07.529Z,10.90
2019-02-19T13:53:24.600Z,10.80
2019-02-19T13:58:31.410Z,11.00
2019-02-19T14:03:37.508Z,10.90
2019-02-19T14:08:43.520Z,11.00
2019-02-19T14:13:59.221Z,11.00
2019-02-19T14:19:21.244Z,10.90
2019-02-19T14:24:46.400Z,10.90
2019-02-19T14:30:20.563Z,10.90
2019-02-19T14:35:41.403Z,10.90
2019-02-19T14:41:04.576Z,10.90
2019-02-19T14:46:28.624Z,10.90
2019-02-19T14:51:52.072Z,10.90
2019-02-19T14:57:17.167Z,10.90
2019-02-19T15:02:42.188Z,10.60
2019-02-19T15:07:59.845Z,10.40
2019-02-19T15:13:18.824Z,10.40
2019-02-19T15:18:40.249Z,10.40
2019-02-19T15:23:53.702Z,10.30
2019-02-19T15:29:13.000Z,10.30
2019-02-19T15:34:40.891Z,10.20
2019-02-19T15:40:21.391Z,10.20
2019-02-19T15:45:44.848Z,10.10
2019-02-19T15:51:15.891Z,10.00
2019-02-19T15:56:39.208Z,10.00
2019-02-19T16:02:13.040Z,9.90
2019-02-19T16:07:35.133Z,9.90
2019-02-19T16:12:50.957Z,9.80
2019-02-19T16:18:09.139Z,9.70
2019-02-19T16:23:38.123Z,9.60
2019-02-19T16:28:57.925Z,9.60
2019-02-19T16:34:14.061Z,9.70
2019-02-19T16:39:29.379Z,9.60
2019-02-19T16:44:47.208Z,9.60
2019-02-19T16:50:15.181Z,9.50
2019-02-19T16:55:39.319Z,9.50
2019-02-19T17:00:59.615Z,9.50
2019-02-19T17:06:15.202Z,9.50
2019-02-19T17:11:45.541Z,9.40
2019-02-19T17:17:19.325Z,9.30
2019-02-19T17:22:37.635Z,9.40
2019-02-19T17:27:51.191Z,9.30
2019-02-19T17:33:16.296Z,9.30
2019-02-19T17:38:44.486Z,9.20
2019-02-19T17:44:09.667Z,9.20
2019-02-19T17:49:25.212Z,9.20
2019-02-19T17:54:41.945Z,9.30
2019-02-19T18:00:22.024Z,9.10
2019-02-19T18:05:35.128Z,9.00
2019-02-19T18:11:00.222Z,9.10
2019-02-19T18:16:15.144Z,9.00
2019-02-19T18:21:21.241Z,9.00
2019-02-19T18:26:27.224Z,8.90
2019-02-19T18:31:33.188Z,8.90
2019-02-19T18:36:39.836Z,8.90
2019-02-19T18:41:45.704Z,8.80
2019-02-19T18:46:51.744Z,8.80
2019-02-19T18:51:57.946Z,8.70
2019-02-19T18:57:03.973Z,8.70
2019-02-19T19:02:09.908Z,8.80
2019-02-19T19:07:15.859Z,8.70
2019-02-19T19:12:22.408Z,8.60
2019-02-19T19:17:28.469Z,8.60
2019-02-19T19:22:36.507Z,8.60
2019-02-19T19:27:42.709Z,8.60
2019-02-19T19:32:48.631Z,8.60
2019-02-19T19:37:54.642Z,8.60
2019-02-19T19:43:00.633Z,8.70
2019-02-19T19:48:07.763Z,8.70
2019-02-19T19:53:13.710Z,8.60
2019-02-19T19:58:19.643Z,8.60
2019-02-19T20:03:25.639Z,8.60
2019-02-19T20:08:31.940Z,8.60
2019-02-19T20:13:37.795Z,8.50
2019-02-19T20:18:43.830Z,8.50
2019-02-19T20:23:50.136Z,8.50
2019-02-19T20:28:56.185Z,8.40
2019-02-19T20:34:02.329Z,8.30
2019-02-19T20:39:08.656Z,8.30
2019-02-19T20:44:14.706Z,8.20
2019-02-19T20:49:20.687Z,8.20
2019-02-19T20:54:26.893Z,8.20
2019-02-19T20:59:32.892Z,8.10
2019-02-19T21:04:38.955Z,8.10
2019-02-19T21:09:44.953Z,8.10
2019-02-19T21:14:50.800Z,8.10
2019-02-19T21:19:56.684Z,8.10
2019-02-19T21:25:02.595Z,8.10
2019-02-19T21:30:10.261Z,8.00
2019-02-19T21:35:16.479Z,8.00
2019-02-19T21:40:22.638Z,8.00
2019-02-19T21:45:29.454Z,8.00
2019-02-19T21:50:35.484Z,7.90
2019-02-19T21:55:41.894Z,8.00
2019-02-19T22:00:47.936Z,7.90
2019-02-19T22:05:56.341Z,7.90
2019-02-19T22:11:02.268Z,7.80
2019-02-19T22:16:09.360Z,7.80
2019-02-19T22:21:46.589Z,7.80
2019-02-19T22:26:52.429Z,7.80
2019-02-19T22:31:58.401Z,7.70
2019-02-19T22:37:05.896Z,7.70
2019-02-19T22:42:12.007Z,7.70
2019-02-19T22:47:19.042Z,7.70
2019-02-19T22:52:26.048Z,7.60
2019-02-19T22:57:32.000Z,7.50
2019-02-19T23:02:38.308Z,7.60
2019-02-19T23:07:45.017Z,7.60
2019-02-19T23:12:53.224Z,7.70
2019-02-19T23:17:59.168Z,7.60
2019-02-19T23:23:05.420Z,7.60
2019-02-19T23:28:11.397Z,7.60
2019-02-19T23:33:17.502Z,7.70
2019-02-19T23:38:23.508Z,7.60
2019-02-19T23:43:33.191Z,7.60
2019-02-19T23:48:39.201Z,7.70
2019-02-19T23:53:45.234Z,7.70
2019-02-19T23:58:51.267Z,7.70
